sensor_id;sensor_type;location;lat;lon;timestamp;P1;durP1;ratioP1;P2;durP2;ratioP2
40995;SDS011;26723;57.478;12.066;2023-04-25T00:01:11;8.97;;;7.77;;
40995;SDS011;26723;57.478;12.066;2023-04-25T00:04:21;8.27;;;7.47;;
40995;SDS011;26723;57.478;12.066;2023-04-25T00:07:30;8.47;;;7.57;;
40995;SDS011;26723;57.478;12.066;2023-04-25T00:10:39;8.63;;;7.60;;
40995;SDS011;26723;57.478;12.066;2023-04-25T00:13:47;10.03;;;7.97;;
40995;SDS011;26723;57.478;12.066;2023-04-25T00:16:56;8.80;;;7.90;;
40995;SDS011;26723;57.478;12.066;2023-04-25T00:20:07;9.17;;;7.90;;
40995;SDS011;26723;57.478;12.066;2023-04-25T00:23:16;9.47;;;8.37;;
40995;SDS011;26723;57.478;12.066;2023-04-25T00:26:25;8.27;;;7.43;;
40995;SDS011;26723;57.478;12.066;2023-04-25T00:29:33;10.03;;;8.57;;
40995;SDS011;26723;57.478;12.066;2023-04-25T00:32:42;9.90;;;8.53;;
40995;SDS011;26723;57.478;12.066;2023-04-25T00:35:51;9.77;;;8.77;;
40995;SDS011;26723;57.478;12.066;2023-04-25T00:39:00;9.47;;;7.80;;
40995;SDS011;26723;57.478;12.066;2023-04-25T00:42:09;10.63;;;8.23;;
40995;SDS011;26723;57.478;12.066;2023-04-25T00:45:18;9.33;;;8.03;;
40995;SDS011;26723;57.478;12.066;2023-04-25T00:48:27;9.57;;;8.00;;
40995;SDS011;26723;57.478;12.066;2023-04-25T00:51:37;9.27;;;8.20;;
40995;SDS011;26723;57.478;12.066;2023-04-25T00:54:45;10.10;;;8.17;;
40995;SDS011;26723;57.478;12.066;2023-04-25T00:57:54;10.67;;;8.33;;
40995;SDS011;26723;57.478;12.066;2023-04-25T01:01:02;9.43;;;8.33;;
40995;SDS011;26723;57.478;12.066;2023-04-25T01:04:11;9.63;;;7.63;;
40995;SDS011;26723;57.478;12.066;2023-04-25T01:07:22;9.63;;;7.93;;
40995;SDS011;26723;57.478;12.066;2023-04-25T01:10:30;8.27;;;7.47;;
40995;SDS011;26723;57.478;12.066;2023-04-25T01:13:39;8.20;;;7.33;;
40995;SDS011;26723;57.478;12.066;2023-04-25T01:16:47;8.37;;;7.00;;
40995;SDS011;26723;57.478;12.066;2023-04-25T01:19:56;8.20;;;7.27;;
40995;SDS011;26723;57.478;12.066;2023-04-25T01:23:08;7.53;;;6.50;;
40995;SDS011;26723;57.478;12.066;2023-04-25T01:26:17;7.77;;;6.97;;
40995;SDS011;26723;57.478;12.066;2023-04-25T01:29:28;7.67;;;6.97;;
40995;SDS011;26723;57.478;12.066;2023-04-25T01:32:37;7.97;;;6.87;;
40995;SDS011;26723;57.478;12.066;2023-04-25T01:35:45;8.57;;;7.53;;
40995;SDS011;26723;57.478;12.066;2023-04-25T01:38:56;8.50;;;7.50;;
40995;SDS011;26723;57.478;12.066;2023-04-25T01:42:04;8.47;;;7.57;;
40995;SDS011;26723;57.478;12.066;2023-04-25T01:45:13;8.00;;;7.20;;
40995;SDS011;26723;57.478;12.066;2023-04-25T01:48:21;8.70;;;7.03;;
40995;SDS011;26723;57.478;12.066;2023-04-25T01:51:30;8.30;;;7.50;;
40995;SDS011;26723;57.478;12.066;2023-04-25T01:54:40;8.60;;;7.13;;
40995;SDS011;26723;57.478;12.066;2023-04-25T01:57:52;9.27;;;7.70;;
40995;SDS011;26723;57.478;12.066;2023-04-25T02:01:09;8.70;;;7.63;;
40995;SDS011;26723;57.478;12.066;2023-04-25T02:04:24;7.73;;;6.93;;
40995;SDS011;26723;57.478;12.066;2023-04-25T02:07:32;9.37;;;7.87;;
40995;SDS011;26723;57.478;12.066;2023-04-25T02:10:42;8.70;;;7.80;;
40995;SDS011;26723;57.478;12.066;2023-04-25T02:13:58;8.17;;;7.30;;
40995;SDS011;26723;57.478;12.066;2023-04-25T02:17:24;8.33;;;7.50;;
40995;SDS011;26723;57.478;12.066;2023-04-25T02:20:33;10.70;;;8.63;;
40995;SDS011;26723;57.478;12.066;2023-04-25T02:23:43;10.07;;;7.87;;
40995;SDS011;26723;57.478;12.066;2023-04-25T02:26:57;9.47;;;7.90;;
40995;SDS011;26723;57.478;12.066;2023-04-25T02:30:05;7.87;;;7.13;;
40995;SDS011;26723;57.478;12.066;2023-04-25T02:33:15;8.17;;;6.90;;
40995;SDS011;26723;57.478;12.066;2023-04-25T02:36:24;7.50;;;6.77;;
40995;SDS011;26723;57.478;12.066;2023-04-25T02:39:32;8.10;;;6.87;;
40995;SDS011;26723;57.478;12.066;2023-04-25T02:42:42;8.60;;;7.10;;
40995;SDS011;26723;57.478;12.066;2023-04-25T02:45:52;8.97;;;7.87;;
40995;SDS011;26723;57.478;12.066;2023-04-25T02:49:00;9.10;;;7.63;;
40995;SDS011;26723;57.478;12.066;2023-04-25T02:52:09;9.93;;;8.27;;
40995;SDS011;26723;57.478;12.066;2023-04-25T02:55:18;12.47;;;9.23;;
40995;SDS011;26723;57.478;12.066;2023-04-25T02:58:28;12.60;;;9.07;;
40995;SDS011;26723;57.478;12.066;2023-04-25T03:01:36;10.67;;;8.40;;
40995;SDS011;26723;57.478;12.066;2023-04-25T03:04:45;12.80;;;9.10;;
40995;SDS011;26723;57.478;12.066;2023-04-25T03:07:54;12.40;;;9.80;;
40995;SDS011;26723;57.478;12.066;2023-04-25T03:11:03;14.07;;;9.80;;
40995;SDS011;26723;57.478;12.066;2023-04-25T03:14:13;13.97;;;9.87;;
40995;SDS011;26723;57.478;12.066;2023-04-25T03:17:21;13.10;;;9.50;;
40995;SDS011;26723;57.478;12.066;2023-04-25T03:20:30;13.10;;;9.57;;
40995;SDS011;26723;57.478;12.066;2023-04-25T03:23:38;12.33;;;9.37;;
40995;SDS011;26723;57.478;12.066;2023-04-25T03:26:47;14.70;;;9.23;;
40995;SDS011;26723;57.478;12.066;2023-04-25T03:29:56;9.77;;;8.37;;
40995;SDS011;26723;57.478;12.066;2023-04-25T03:33:05;9.63;;;8.00;;
40995;SDS011;26723;57.478;12.066;2023-04-25T03:36:13;11.53;;;8.83;;
40995;SDS011;26723;57.478;12.066;2023-04-25T03:39:22;12.30;;;8.67;;
40995;SDS011;26723;57.478;12.066;2023-04-25T03:42:31;12.43;;;8.53;;
40995;SDS011;26723;57.478;12.066;2023-04-25T03:45:42;9.40;;;7.57;;
40995;SDS011;26723;57.478;12.066;2023-04-25T03:48:50;11.90;;;8.20;;
40995;SDS011;26723;57.478;12.066;2023-04-25T03:52:03;9.27;;;7.43;;
40995;SDS011;26723;57.478;12.066;2023-04-25T03:55:17;9.80;;;7.20;;
40995;SDS011;26723;57.478;12.066;2023-04-25T03:58:26;6.47;;;4.30;;
40995;SDS011;26723;57.478;12.066;2023-04-25T04:01:36;3.30;;;2.80;;
40995;SDS011;26723;57.478;12.066;2023-04-25T04:04:47;2.43;;;2.23;;
40995;SDS011;26723;57.478;12.066;2023-04-25T04:07:57;2.17;;;2.07;;
40995;SDS011;26723;57.478;12.066;2023-04-25T04:11:06;2.43;;;2.30;;
40995;SDS011;26723;57.478;12.066;2023-04-25T04:14:16;3.27;;;2.37;;
40995;SDS011;26723;57.478;12.066;2023-04-25T04:17:27;5.13;;;2.47;;
40995;SDS011;26723;57.478;12.066;2023-04-25T04:20:36;2.20;;;2.10;;
40995;SDS011;26723;57.478;12.066;2023-04-25T04:23:46;2.40;;;2.20;;
40995;SDS011;26723;57.478;12.066;2023-04-25T04:26:56;2.30;;;1.83;;
40995;SDS011;26723;57.478;12.066;2023-04-25T04:30:24;1.90;;;1.80;;
40995;SDS011;26723;57.478;12.066;2023-04-25T04:33:41;2.10;;;1.90;;
40995;SDS011;26723;57.478;12.066;2023-04-25T04:36:51;2.23;;;2.00;;
40995;SDS011;26723;57.478;12.066;2023-04-25T04:39:59;2.37;;;1.80;;
40995;SDS011;26723;57.478;12.066;2023-04-25T04:43:22;2.40;;;2.20;;
40995;SDS011;26723;57.478;12.066;2023-04-25T04:47:01;2.37;;;1.80;;
40995;SDS011;26723;57.478;12.066;2023-04-25T04:50:40;1.90;;;1.70;;
40995;SDS011;26723;57.478;12.066;2023-04-25T04:54:22;1.50;;;1.40;;
40995;SDS011;26723;57.478;12.066;2023-04-25T04:57:49;2.07;;;1.87;;
40995;SDS011;26723;57.478;12.066;2023-04-25T05:01:12;1.80;;;1.70;;
40995;SDS011;26723;57.478;12.066;2023-04-25T05:04:41;1.83;;;1.73;;
40995;SDS011;26723;57.478;12.066;2023-04-25T05:08:15;2.73;;;1.97;;
40995;SDS011;26723;57.478;12.066;2023-04-25T05:11:43;3.07;;;2.87;;
40995;SDS011;26723;57.478;12.066;2023-04-25T05:15:03;3.50;;;3.20;;
40995;SDS011;26723;57.478;12.066;2023-04-25T05:18:32;4.23;;;3.20;;
40995;SDS011;26723;57.478;12.066;2023-04-25T05:22:13;2.93;;;2.73;;
40995;SDS011;26723;57.478;12.066;2023-04-25T05:25:49;3.63;;;2.70;;
40995;SDS011;26723;57.478;12.066;2023-04-25T05:29:18;3.10;;;2.63;;
40995;SDS011;26723;57.478;12.066;2023-04-25T05:32:39;2.40;;;2.23;;
40995;SDS011;26723;57.478;12.066;2023-04-25T05:35:48;3.97;;;2.37;;
40995;SDS011;26723;57.478;12.066;2023-04-25T05:38:58;2.70;;;2.50;;
40995;SDS011;26723;57.478;12.066;2023-04-25T05:42:26;3.20;;;2.70;;
40995;SDS011;26723;57.478;12.066;2023-04-25T05:45:54;2.50;;;2.30;;
40995;SDS011;26723;57.478;12.066;2023-04-25T05:49:20;3.43;;;2.07;;
40995;SDS011;26723;57.478;12.066;2023-04-25T05:52:40;2.37;;;2.27;;
40995;SDS011;26723;57.478;12.066;2023-04-25T05:56:03;2.50;;;2.40;;
40995;SDS011;26723;57.478;12.066;2023-04-25T05:59:19;2.83;;;2.60;;
40995;SDS011;26723;57.478;12.066;2023-04-25T06:02:27;4.10;;;2.57;;
40995;SDS011;26723;57.478;12.066;2023-04-25T06:05:36;2.63;;;2.30;;
40995;SDS011;26723;57.478;12.066;2023-04-25T06:08:44;2.43;;;2.20;;
40995;SDS011;26723;57.478;12.066;2023-04-25T06:11:53;2.83;;;2.63;;
40995;SDS011;26723;57.478;12.066;2023-04-25T06:15:03;2.33;;;2.23;;
40995;SDS011;26723;57.478;12.066;2023-04-25T06:18:32;2.20;;;1.40;;
40995;SDS011;26723;57.478;12.066;2023-04-25T06:21:43;2.07;;;1.30;;
40995;SDS011;26723;57.478;12.066;2023-04-25T06:24:52;2.10;;;1.20;;
40995;SDS011;26723;57.478;12.066;2023-04-25T06:28:03;3.27;;;1.20;;
40995;SDS011;26723;57.478;12.066;2023-04-25T06:31:13;1.60;;;1.00;;
40995;SDS011;26723;57.478;12.066;2023-04-25T06:34:24;2.00;;;1.10;;
40995;SDS011;26723;57.478;12.066;2023-04-25T06:37:32;6.97;;;1.80;;
40995;SDS011;26723;57.478;12.066;2023-04-25T06:40:41;2.20;;;1.23;;
40995;SDS011;26723;57.478;12.066;2023-04-25T06:43:49;1.33;;;0.80;;
40995;SDS011;26723;57.478;12.066;2023-04-25T06:47:18;1.60;;;0.70;;
40995;SDS011;26723;57.478;12.066;2023-04-25T06:50:28;3.53;;;0.97;;
40995;SDS011;26723;57.478;12.066;2023-04-25T06:53:36;1.50;;;0.70;;
40995;SDS011;26723;57.478;12.066;2023-04-25T06:56:48;1.10;;;0.97;;
40995;SDS011;26723;57.478;12.066;2023-04-25T06:59:56;1.27;;;0.70;;
40995;SDS011;26723;57.478;12.066;2023-04-25T07:03:09;0.43;;;0.43;;
40995;SDS011;26723;57.478;12.066;2023-04-25T07:06:18;0.60;;;0.60;;
40995;SDS011;26723;57.478;12.066;2023-04-25T07:09:27;0.40;;;0.40;;
40995;SDS011;26723;57.478;12.066;2023-04-25T07:12:35;1.50;;;0.37;;
40995;SDS011;26723;57.478;12.066;2023-04-25T07:15:44;0.53;;;0.40;;
40995;SDS011;26723;57.478;12.066;2023-04-25T07:18:57;1.03;;;0.57;;
40995;SDS011;26723;57.478;12.066;2023-04-25T07:22:07;1.30;;;0.40;;
40995;SDS011;26723;57.478;12.066;2023-04-25T07:25:18;1.37;;;0.60;;
40995;SDS011;26723;57.478;12.066;2023-04-25T07:28:28;1.33;;;0.57;;
40995;SDS011;26723;57.478;12.066;2023-04-25T07:31:36;0.93;;;0.50;;
40995;SDS011;26723;57.478;12.066;2023-04-25T07:34:46;0.80;;;0.50;;
40995;SDS011;26723;57.478;12.066;2023-04-25T07:37:55;1.33;;;0.50;;
40995;SDS011;26723;57.478;12.066;2023-04-25T07:41:03;1.50;;;0.50;;
40995;SDS011;26723;57.478;12.066;2023-04-25T07:44:14;0.80;;;0.37;;
40995;SDS011;26723;57.478;12.066;2023-04-25T07:47:23;0.30;;;0.23;;
40995;SDS011;26723;57.478;12.066;2023-04-25T07:50:33;0.77;;;0.60;;
40995;SDS011;26723;57.478;12.066;2023-04-25T07:53:42;1.37;;;0.40;;
40995;SDS011;26723;57.478;12.066;2023-04-25T07:56:53;0.90;;;0.40;;
40995;SDS011;26723;57.478;12.066;2023-04-25T08:00:08;0.40;;;0.30;;
40995;SDS011;26723;57.478;12.066;2023-04-25T08:03:25;0.97;;;0.30;;
40995;SDS011;26723;57.478;12.066;2023-04-25T08:06:36;1.83;;;0.40;;
40995;SDS011;26723;57.478;12.066;2023-04-25T08:09:56;0.60;;;0.20;;
40995;SDS011;26723;57.478;12.066;2023-04-25T08:13:14;0.23;;;0.20;;
40995;SDS011;26723;57.478;12.066;2023-04-25T08:16:29;1.03;;;0.50;;
40995;SDS011;26723;57.478;12.066;2023-04-25T08:19:49;0.40;;;0.30;;
40995;SDS011;26723;57.478;12.066;2023-04-25T08:23:07;1.70;;;0.20;;
40995;SDS011;26723;57.478;12.066;2023-04-25T08:26:31;0.20;;;0.20;;
40995;SDS011;26723;57.478;12.066;2023-04-25T08:29:49;0.30;;;0.30;;
40995;SDS011;26723;57.478;12.066;2023-04-25T08:33:08;0.37;;;0.30;;
40995;SDS011;26723;57.478;12.066;2023-04-25T08:36:45;0.27;;;0.27;;
40995;SDS011;26723;57.478;12.066;2023-04-25T08:40:08;1.13;;;0.40;;
40995;SDS011;26723;57.478;12.066;2023-04-25T08:43:28;0.23;;;0.23;;
40995;SDS011;26723;57.478;12.066;2023-04-25T08:46:40;0.73;;;0.20;;
40995;SDS011;26723;57.478;12.066;2023-04-25T08:50:04;0.40;;;0.30;;
40995;SDS011;26723;57.478;12.066;2023-04-25T08:53:15;0.20;;;0.20;;
40995;SDS011;26723;57.478;12.066;2023-04-25T08:56:44;0.33;;;0.20;;
40995;SDS011;26723;57.478;12.066;2023-04-25T09:00:02;0.37;;;0.23;;
40995;SDS011;26723;57.478;12.066;2023-04-25T09:03:22;1.27;;;0.57;;
40995;SDS011;26723;57.478;12.066;2023-04-25T09:06:37;1.00;;;0.30;;
40995;SDS011;26723;57.478;12.066;2023-04-25T09:09:46;1.57;;;0.47;;
40995;SDS011;26723;57.478;12.066;2023-04-25T09:13:11;0.37;;;0.37;;
40995;SDS011;26723;57.478;12.066;2023-04-25T09:16:57;0.40;;;0.30;;
40995;SDS011;26723;57.478;12.066;2023-04-25T09:20:31;0.13;;;0.13;;
40995;SDS011;26723;57.478;12.066;2023-04-25T09:24:06;0.53;;;0.33;;
40995;SDS011;26723;57.478;12.066;2023-04-25T09:27:19;0.37;;;0.37;;
40995;SDS011;26723;57.478;12.066;2023-04-25T09:30:55;0.23;;;0.23;;
40995;SDS011;26723;57.478;12.066;2023-04-25T09:34:17;0.97;;;0.30;;
40995;SDS011;26723;57.478;12.066;2023-04-25T09:37:33;0.27;;;0.20;;
40995;SDS011;26723;57.478;12.066;2023-04-25T09:41:00;0.40;;;0.40;;
40995;SDS011;26723;57.478;12.066;2023-04-25T09:44:19;0.20;;;0.20;;
40995;SDS011;26723;57.478;12.066;2023-04-25T09:47:36;0.90;;;0.30;;
40995;SDS011;26723;57.478;12.066;2023-04-25T09:50:51;0.13;;;0.13;;
40995;SDS011;26723;57.478;12.066;2023-04-25T09:54:13;0.30;;;0.30;;
40995;SDS011;26723;57.478;12.066;2023-04-25T09:57:26;0.77;;;0.23;;
40995;SDS011;26723;57.478;12.066;2023-04-25T10:00:46;1.33;;;0.77;;
40995;SDS011;26723;57.478;12.066;2023-04-25T10:04:08;0.67;;;0.40;;
40995;SDS011;26723;57.478;12.066;2023-04-25T10:07:28;1.50;;;0.90;;
40995;SDS011;26723;57.478;12.066;2023-04-25T10:10:38;0.97;;;0.47;;
40995;SDS011;26723;57.478;12.066;2023-04-25T10:13:48;0.50;;;0.40;;
40995;SDS011;26723;57.478;12.066;2023-04-25T10:16:58;0.63;;;0.63;;
40995;SDS011;26723;57.478;12.066;2023-04-25T10:20:09;0.50;;;0.50;;
40995;SDS011;26723;57.478;12.066;2023-04-25T10:23:18;0.50;;;0.40;;
40995;SDS011;26723;57.478;12.066;2023-04-25T10:26:28;1.03;;;0.63;;
40995;SDS011;26723;57.478;12.066;2023-04-25T10:29:37;0.43;;;0.40;;
40995;SDS011;26723;57.478;12.066;2023-04-25T10:32:45;0.47;;;0.43;;
40995;SDS011;26723;57.478;12.066;2023-04-25T10:35:59;0.63;;;0.50;;
40995;SDS011;26723;57.478;12.066;2023-04-25T10:39:22;0.57;;;0.57;;
40995;SDS011;26723;57.478;12.066;2023-04-25T10:42:31;0.43;;;0.43;;
40995;SDS011;26723;57.478;12.066;2023-04-25T10:45:50;0.57;;;0.57;;
40995;SDS011;26723;57.478;12.066;2023-04-25T10:49:00;0.93;;;0.60;;
40995;SDS011;26723;57.478;12.066;2023-04-25T10:52:24;0.40;;;0.40;;
40995;SDS011;26723;57.478;12.066;2023-04-25T10:55:48;2.13;;;0.33;;
40995;SDS011;26723;57.478;12.066;2023-04-25T10:59:05;0.63;;;0.40;;
40995;SDS011;26723;57.478;12.066;2023-04-25T11:02:15;0.50;;;0.50;;
40995;SDS011;26723;57.478;12.066;2023-04-25T11:05:27;0.53;;;0.50;;
40995;SDS011;26723;57.478;12.066;2023-04-25T11:08:49;1.07;;;0.37;;
40995;SDS011;26723;57.478;12.066;2023-04-25T11:11:59;0.43;;;0.43;;
40995;SDS011;26723;57.478;12.066;2023-04-25T11:15:08;1.70;;;0.40;;
40995;SDS011;26723;57.478;12.066;2023-04-25T11:18:17;0.70;;;0.70;;
40995;SDS011;26723;57.478;12.066;2023-04-25T11:21:27;0.53;;;0.53;;
40995;SDS011;26723;57.478;12.066;2023-04-25T11:24:39;0.73;;;0.43;;
40995;SDS011;26723;57.478;12.066;2023-04-25T11:27:51;0.60;;;0.60;;
40995;SDS011;26723;57.478;12.066;2023-04-25T11:31:00;0.60;;;0.60;;
40995;SDS011;26723;57.478;12.066;2023-04-25T11:34:11;1.33;;;0.87;;
40995;SDS011;26723;57.478;12.066;2023-04-25T11:37:24;0.53;;;0.53;;
40995;SDS011;26723;57.478;12.066;2023-04-25T11:40:34;0.50;;;0.50;;
40995;SDS011;26723;57.478;12.066;2023-04-25T11:43:43;1.03;;;0.67;;
40995;SDS011;26723;57.478;12.066;2023-04-25T11:46:52;2.23;;;0.93;;
40995;SDS011;26723;57.478;12.066;2023-04-25T11:50:00;1.07;;;0.40;;
40995;SDS011;26723;57.478;12.066;2023-04-25T11:53:10;1.13;;;0.53;;
40995;SDS011;26723;57.478;12.066;2023-04-25T11:56:20;1.00;;;0.80;;
40995;SDS011;26723;57.478;12.066;2023-04-25T11:59:28;0.70;;;0.70;;
40995;SDS011;26723;57.478;12.066;2023-04-25T12:02:39;0.93;;;0.60;;
40995;SDS011;26723;57.478;12.066;2023-04-25T12:05:50;2.20;;;0.60;;
40995;SDS011;26723;57.478;12.066;2023-04-25T12:08:59;0.77;;;0.70;;
40995;SDS011;26723;57.478;12.066;2023-04-25T12:12:12;1.77;;;0.77;;
40995;SDS011;26723;57.478;12.066;2023-04-25T12:15:23;0.40;;;0.40;;
40995;SDS011;26723;57.478;12.066;2023-04-25T12:18:35;2.33;;;0.50;;
40995;SDS011;26723;57.478;12.066;2023-04-25T12:21:45;0.43;;;0.43;;
40995;SDS011;26723;57.478;12.066;2023-04-25T12:24:57;0.60;;;0.60;;
40995;SDS011;26723;57.478;12.066;2023-04-25T12:28:11;0.93;;;0.60;;
40995;SDS011;26723;57.478;12.066;2023-04-25T12:31:20;0.87;;;0.50;;
40995;SDS011;26723;57.478;12.066;2023-04-25T12:34:31;0.50;;;0.50;;
40995;SDS011;26723;57.478;12.066;2023-04-25T12:37:42;0.50;;;0.50;;
40995;SDS011;26723;57.478;12.066;2023-04-25T12:40:50;1.17;;;0.60;;
40995;SDS011;26723;57.478;12.066;2023-04-25T12:44:00;0.30;;;0.30;;
40995;SDS011;26723;57.478;12.066;2023-04-25T12:47:08;0.63;;;0.60;;
40995;SDS011;26723;57.478;12.066;2023-04-25T12:50:17;1.00;;;0.57;;
40995;SDS011;26723;57.478;12.066;2023-04-25T12:53:25;0.50;;;0.50;;
40995;SDS011;26723;57.478;12.066;2023-04-25T12:56:34;0.50;;;0.50;;
40995;SDS011;26723;57.478;12.066;2023-04-25T12:59:44;0.83;;;0.50;;
40995;SDS011;26723;57.478;12.066;2023-04-25T13:02:53;1.07;;;0.57;;
40995;SDS011;26723;57.478;12.066;2023-04-25T13:06:02;0.50;;;0.50;;
40995;SDS011;26723;57.478;12.066;2023-04-25T13:09:11;1.20;;;0.40;;
40995;SDS011;26723;57.478;12.066;2023-04-25T13:12:21;0.77;;;0.60;;
40995;SDS011;26723;57.478;12.066;2023-04-25T13:15:31;0.80;;;0.60;;
40995;SDS011;26723;57.478;12.066;2023-04-25T13:18:40;1.13;;;0.60;;
40995;SDS011;26723;57.478;12.066;2023-04-25T13:21:50;0.90;;;0.60;;
40995;SDS011;26723;57.478;12.066;2023-04-25T13:25:00;1.20;;;0.50;;
40995;SDS011;26723;57.478;12.066;2023-04-25T13:28:09;0.60;;;0.60;;
40995;SDS011;26723;57.478;12.066;2023-04-25T13:31:20;0.53;;;0.50;;
40995;SDS011;26723;57.478;12.066;2023-04-25T13:34:28;1.53;;;0.63;;
40995;SDS011;26723;57.478;12.066;2023-04-25T13:37:37;0.60;;;0.60;;
40995;SDS011;26723;57.478;12.066;2023-04-25T13:40:48;0.33;;;0.33;;
40995;SDS011;26723;57.478;12.066;2023-04-25T13:43:58;0.50;;;0.50;;
40995;SDS011;26723;57.478;12.066;2023-04-25T13:47:08;2.30;;;0.73;;
40995;SDS011;26723;57.478;12.066;2023-04-25T13:50:17;0.50;;;0.50;;
40995;SDS011;26723;57.478;12.066;2023-04-25T13:53:25;1.00;;;0.60;;
40995;SDS011;26723;57.478;12.066;2023-04-25T13:56:34;1.13;;;0.80;;
40995;SDS011;26723;57.478;12.066;2023-04-25T13:59:42;0.40;;;0.40;;
40995;SDS011;26723;57.478;12.066;2023-04-25T14:02:52;0.40;;;0.40;;
40995;SDS011;26723;57.478;12.066;2023-04-25T14:06:00;0.80;;;0.50;;
40995;SDS011;26723;57.478;12.066;2023-04-25T14:09:09;0.40;;;0.40;;
40995;SDS011;26723;57.478;12.066;2023-04-25T14:12:19;1.33;;;0.40;;
40995;SDS011;26723;57.478;12.066;2023-04-25T14:15:27;0.40;;;0.40;;
40995;SDS011;26723;57.478;12.066;2023-04-25T14:18:38;0.97;;;0.50;;
40995;SDS011;26723;57.478;12.066;2023-04-25T14:21:47;0.50;;;0.50;;
40995;SDS011;26723;57.478;12.066;2023-04-25T14:24:55;0.50;;;0.50;;
40995;SDS011;26723;57.478;12.066;2023-04-25T14:28:04;0.40;;;0.40;;
40995;SDS011;26723;57.478;12.066;2023-04-25T14:31:13;0.30;;;0.30;;
40995;SDS011;26723;57.478;12.066;2023-04-25T14:34:23;0.50;;;0.50;;
40995;SDS011;26723;57.478;12.066;2023-04-25T14:37:31;0.37;;;0.37;;
40995;SDS011;26723;57.478;12.066;2023-04-25T14:40:40;0.47;;;0.47;;
40995;SDS011;26723;57.478;12.066;2023-04-25T14:43:49;0.93;;;0.70;;
40995;SDS011;26723;57.478;12.066;2023-04-25T14:46:57;0.40;;;0.40;;
40995;SDS011;26723;57.478;12.066;2023-04-25T14:50:08;0.47;;;0.40;;
40995;SDS011;26723;57.478;12.066;2023-04-25T14:53:17;0.57;;;0.50;;
40995;SDS011;26723;57.478;12.066;2023-04-25T14:56:26;0.60;;;0.60;;
40995;SDS011;26723;57.478;12.066;2023-04-25T14:59:35;0.33;;;0.33;;
40995;SDS011;26723;57.478;12.066;2023-04-25T15:02:44;0.60;;;0.60;;
40995;SDS011;26723;57.478;12.066;2023-04-25T15:05:55;0.40;;;0.40;;
40995;SDS011;26723;57.478;12.066;2023-04-25T15:09:06;0.30;;;0.30;;
40995;SDS011;26723;57.478;12.066;2023-04-25T15:12:17;0.50;;;0.50;;
40995;SDS011;26723;57.478;12.066;2023-04-25T15:15:26;0.40;;;0.40;;
40995;SDS011;26723;57.478;12.066;2023-04-25T15:18:34;0.20;;;0.20;;
40995;SDS011;26723;57.478;12.066;2023-04-25T15:21:44;0.47;;;0.40;;
40995;SDS011;26723;57.478;12.066;2023-04-25T15:24:53;0.80;;;0.50;;
40995;SDS011;26723;57.478;12.066;2023-04-25T15:28:02;0.37;;;0.37;;
40995;SDS011;26723;57.478;12.066;2023-04-25T15:31:11;0.40;;;0.40;;
40995;SDS011;26723;57.478;12.066;2023-04-25T15:34:19;0.40;;;0.40;;
40995;SDS011;26723;57.478;12.066;2023-04-25T15:37:32;0.43;;;0.40;;
40995;SDS011;26723;57.478;12.066;2023-04-25T15:40:42;0.37;;;0.37;;
40995;SDS011;26723;57.478;12.066;2023-04-25T15:43:54;1.17;;;0.30;;
40995;SDS011;26723;57.478;12.066;2023-04-25T15:47:02;0.47;;;0.47;;
40995;SDS011;26723;57.478;12.066;2023-04-25T15:50:21;0.40;;;0.40;;
40995;SDS011;26723;57.478;12.066;2023-04-25T15:53:32;0.40;;;0.40;;
40995;SDS011;26723;57.478;12.066;2023-04-25T15:56:51;1.07;;;0.60;;
40995;SDS011;26723;57.478;12.066;2023-04-25T16:00:20;0.40;;;0.40;;
40995;SDS011;26723;57.478;12.066;2023-04-25T16:03:29;0.57;;;0.57;;
40995;SDS011;26723;57.478;12.066;2023-04-25T16:06:41;0.50;;;0.50;;
40995;SDS011;26723;57.478;12.066;2023-04-25T16:09:54;0.40;;;0.40;;
40995;SDS011;26723;57.478;12.066;2023-04-25T16:13:02;0.60;;;0.40;;
40995;SDS011;26723;57.478;12.066;2023-04-25T16:16:11;0.30;;;0.30;;
40995;SDS011;26723;57.478;12.066;2023-04-25T16:19:20;1.03;;;0.60;;
40995;SDS011;26723;57.478;12.066;2023-04-25T16:22:29;0.43;;;0.43;;
40995;SDS011;26723;57.478;12.066;2023-04-25T16:25:39;0.20;;;0.20;;
40995;SDS011;26723;57.478;12.066;2023-04-25T16:28:48;0.30;;;0.30;;
40995;SDS011;26723;57.478;12.066;2023-04-25T16:31:56;0.30;;;0.30;;
40995;SDS011;26723;57.478;12.066;2023-04-25T16:35:07;0.30;;;0.30;;
40995;SDS011;26723;57.478;12.066;2023-04-25T16:38:16;0.30;;;0.20;;
40995;SDS011;26723;57.478;12.066;2023-04-25T16:41:25;0.10;;;0.10;;
40995;SDS011;26723;57.478;12.066;2023-04-25T16:44:35;0.50;;;0.43;;
40995;SDS011;26723;57.478;12.066;2023-04-25T16:47:47;0.40;;;0.40;;
40995;SDS011;26723;57.478;12.066;2023-04-25T16:50:55;0.30;;;0.30;;
40995;SDS011;26723;57.478;12.066;2023-04-25T16:54:04;0.30;;;0.30;;
40995;SDS011;26723;57.478;12.066;2023-04-25T16:57:14;0.47;;;0.47;;
40995;SDS011;26723;57.478;12.066;2023-04-25T17:00:23;0.37;;;0.30;;
40995;SDS011;26723;57.478;12.066;2023-04-25T17:03:32;0.77;;;0.30;;
40995;SDS011;26723;57.478;12.066;2023-04-25T17:06:41;0.33;;;0.33;;
40995;SDS011;26723;57.478;12.066;2023-04-25T17:09:50;0.20;;;0.20;;
40995;SDS011;26723;57.478;12.066;2023-04-25T17:13:00;0.20;;;0.20;;
40995;SDS011;26723;57.478;12.066;2023-04-25T17:16:09;0.50;;;0.30;;
40995;SDS011;26723;57.478;12.066;2023-04-25T17:19:19;0.20;;;0.20;;
40995;SDS011;26723;57.478;12.066;2023-04-25T17:22:27;0.90;;;0.33;;
40995;SDS011;26723;57.478;12.066;2023-04-25T17:25:36;0.30;;;0.13;;
40995;SDS011;26723;57.478;12.066;2023-04-25T17:28:46;0.43;;;0.43;;
40995;SDS011;26723;57.478;12.066;2023-04-25T17:31:56;0.30;;;0.30;;
40995;SDS011;26723;57.478;12.066;2023-04-25T17:35:04;0.83;;;0.30;;
40995;SDS011;26723;57.478;12.066;2023-04-25T17:38:13;0.57;;;0.20;;
40995;SDS011;26723;57.478;12.066;2023-04-25T17:41:21;0.30;;;0.30;;
40995;SDS011;26723;57.478;12.066;2023-04-25T17:44:33;0.20;;;0.20;;
40995;SDS011;26723;57.478;12.066;2023-04-25T17:47:42;0.50;;;0.47;;
40995;SDS011;26723;57.478;12.066;2023-04-25T17:50:55;0.23;;;0.23;;
40995;SDS011;26723;57.478;12.066;2023-04-25T17:54:06;0.53;;;0.20;;
40995;SDS011;26723;57.478;12.066;2023-04-25T17:57:15;0.67;;;0.30;;
40995;SDS011;26723;57.478;12.066;2023-04-25T18:00:25;1.27;;;0.33;;
40995;SDS011;26723;57.478;12.066;2023-04-25T18:03:34;0.30;;;0.30;;
40995;SDS011;26723;57.478;12.066;2023-04-25T18:06:45;0.80;;;0.30;;
40995;SDS011;26723;57.478;12.066;2023-04-25T18:09:54;0.40;;;0.40;;
40995;SDS011;26723;57.478;12.066;2023-04-25T18:13:02;1.10;;;0.50;;
40995;SDS011;26723;57.478;12.066;2023-04-25T18:16:12;0.30;;;0.30;;
40995;SDS011;26723;57.478;12.066;2023-04-25T18:19:21;0.40;;;0.40;;
40995;SDS011;26723;57.478;12.066;2023-04-25T18:22:29;0.40;;;0.40;;
40995;SDS011;26723;57.478;12.066;2023-04-25T18:25:38;1.37;;;0.60;;
40995;SDS011;26723;57.478;12.066;2023-04-25T18:28:49;0.30;;;0.30;;
40995;SDS011;26723;57.478;12.066;2023-04-25T18:32:00;0.20;;;0.20;;
40995;SDS011;26723;57.478;12.066;2023-04-25T18:35:10;2.13;;;1.03;;
40995;SDS011;26723;57.478;12.066;2023-04-25T18:38:19;0.60;;;0.50;;
40995;SDS011;26723;57.478;12.066;2023-04-25T18:41:41;0.27;;;0.27;;
40995;SDS011;26723;57.478;12.066;2023-04-25T18:45:04;0.60;;;0.60;;
40995;SDS011;26723;57.478;12.066;2023-04-25T18:48:15;0.70;;;0.70;;
40995;SDS011;26723;57.478;12.066;2023-04-25T18:51:23;3.37;;;1.80;;
40995;SDS011;26723;57.478;12.066;2023-04-25T18:54:34;1.67;;;1.57;;
40995;SDS011;26723;57.478;12.066;2023-04-25T18:57:43;1.60;;;1.30;;
40995;SDS011;26723;57.478;12.066;2023-04-25T19:00:52;1.00;;;1.00;;